Thunder radar more information blitzortung!


Radar de pluja more information rain snow radar


Visita la nostra xarxa de llocs de meteo:

Template documentation
and downloads

And another site



No particular awareness of the weather is required.    There are no Weather-warnings

Pagina Historial Weather Underground text

Diari Resum Abril 6, 2016 Unitats:  Mètric    Imperial   Tant
« Previous Dia
SegĂźent Dia »
Diari Setmana Mensual Anual Personalitzada
  Maxima: Minima: Media:
Temperatura: 20.8 °C 9.5 °C 15.8 °C
Punt de rosada: 11.9 °C 4.1 °C 8.7 °C
Humitat: 89 % 49 % 64 %
Wind Speed: 18.5 km/h 0.0 km/h 5.1 km/h
RĂ fegues de vent: 18.5 km/h - -
Vent:- - SW
Pression baro: 1015.8 hPa 1011.7 hPa -
Precipitacions: 0.0 mm    
Historical Graphs
 
 
Dades de taula per Abril 6, 2016
Temps Temperatura Punt de rosada Pression baro Vent Wind Speed RĂ fegues de vent Humitat Rainfall Rate (Hourly)
00:00 10.6 °C 8.9 °C 1012.8 hPa Calm   1.6 km/h 89 % 0.0 mm
00:04 12.0 °C 10.1 °C 1011.7 hPa Calm     88 % 0.0 mm
00:09 12.0 °C 10.1 °C 1011.7 hPa WSW 3.7 km/h 3.7 km/h 88 % 0.0 mm
00:10 10.6 °C 8.7 °C 1011.7 hPa Calm   1.6 km/h 88 % 0.0 mm
00:30 10.5 °C 8.4 °C 1011.7 hPa Calm     87 % 0.0 mm
00:40 10.5 °C 8.3 °C 1012.8 hPa North 1.6 km/h   86 % 0.0 mm
00:50 10.7 °C 8.4 °C 1012.8 hPa Calm   1.6 km/h 86 % 0.0 mm
01:00 10.6 °C 8.2 °C 1012.8 hPa NNW 1.6 km/h 3.2 km/h 85 % 0.0 mm
01:10 10.4 °C 8.0 °C 1012.8 hPa NNW 1.6 km/h 3.2 km/h 85 % 0.0 mm
01:20 10.3 °C 8.1 °C 1012.8 hPa Calm   3.2 km/h 86 % 0.0 mm
01:30 10.2 °C 7.9 °C 1013.8 hPa NNE 3.2 km/h 3.2 km/h 86 % 0.0 mm
01:40 10.1 °C 7.9 °C 1012.8 hPa NNW 1.6 km/h 3.2 km/h 86 % 0.0 mm
01:50 10.0 °C 7.8 °C 1012.8 hPa Calm   3.2 km/h 86 % 0.0 mm
02:00 9.8 °C 7.7 °C 1012.8 hPa Calm   1.6 km/h 87 % 0.0 mm
02:10 9.6 °C 7.6 °C 1013.8 hPa SW 1.6 km/h 3.2 km/h 87 % 0.0 mm
02:20 9.6 °C 7.6 °C 1013.8 hPa Calm   3.2 km/h 87 % 0.0 mm
02:35 9.5 °C 7.4 °C 1013.8 hPa WSW 1.6 km/h 3.2 km/h 87 % 0.0 mm
02:45 9.5 °C 7.6 °C 1013.8 hPa Calm   1.6 km/h 88 % 0.0 mm
02:55 9.7 °C 7.8 °C 1013.8 hPa West 1.6 km/h 3.2 km/h 88 % 0.0 mm
03:05 9.5 °C 7.6 °C 1013.8 hPa Calm     88 % 0.0 mm
03:15 9.6 °C 7.7 °C 1012.8 hPa WSW 1.6 km/h 3.2 km/h 88 % 0.0 mm
03:25 9.8 °C 7.9 °C 1013.8 hPa WSW 3.2 km/h 3.2 km/h 88 % 0.0 mm
03:35 10.3 °C 8.2 °C 1013.8 hPa Calm   4.8 km/h 87 % 0.0 mm
03:45 10.5 °C 8.4 °C 1013.8 hPa Calm     87 % 0.0 mm
03:55 10.8 °C 8.7 °C 1013.8 hPa WSW 1.6 km/h 3.2 km/h 87 % 0.0 mm
04:05 11.0 °C 8.7 °C 1013.8 hPa SSW 1.6 km/h 3.2 km/h 86 % 0.0 mm
04:15 11.1 °C 8.7 °C 1014.8 hPa SW 3.2 km/h 3.2 km/h 85 % 0.0 mm
04:25 11.2 °C 8.8 °C 1014.8 hPa WSW 1.6 km/h 4.8 km/h 85 % 0.0 mm
04:35 11.3 °C 8.9 °C 1014.8 hPa SW 1.6 km/h 4.8 km/h 85 % 0.0 mm
04:45 11.6 °C 9.0 °C 1014.8 hPa WSW 1.6 km/h 4.8 km/h 84 % 0.0 mm
04:55 11.8 °C 9.2 °C 1014.8 hPa WNW 1.6 km/h 4.8 km/h 84 % 0.0 mm
05:05 12.0 °C 9.2 °C 1014.8 hPa WSW 1.6 km/h 1.6 km/h 83 % 0.0 mm
05:15 12.3 °C 9.3 °C 1014.8 hPa WSW 3.2 km/h 6.4 km/h 82 % 0.0 mm
05:25 13.0 °C 9.8 °C 1014.8 hPa WSW 1.6 km/h 6.4 km/h 81 % 0.0 mm
10:31 13.5 °C 9.9 °C 1014.8 hPa NNE 6.9 km/h 6.9 km/h 79 % 0.0 mm
10:36 13.3 °C 9.7 °C 1015.8 hPa WNW 5.6 km/h 5.6 km/h 79 % 0.0 mm
10:41 13.3 °C 9.6 °C 1015.8 hPa ENE 5.6 km/h   78 % 0.0 mm
10:46 13.8 °C 10.1 °C 1015.8 hPa SSE 3.7 km/h 3.7 km/h 78 % 0.0 mm
10:51 14.2 °C 10.4 °C 1014.8 hPa North 5.0 km/h 5.0 km/h 78 % 0.0 mm
10:56 14.2 °C 10.4 °C 1014.8 hPa ENE 5.0 km/h 5.0 km/h 78 % 0.0 mm
11:01 14.1 °C 10.1 °C 1014.8 hPa ESE 5.6 km/h 5.6 km/h 77 % 0.0 mm
11:06 14.2 °C 10.2 °C 1014.8 hPa ENE 5.6 km/h 5.6 km/h 77 % 0.0 mm
11:11 14.3 °C 10.1 °C 1014.8 hPa ENE 3.7 km/h 3.7 km/h 76 % 0.0 mm
11:16 14.5 °C 10.3 °C 1014.8 hPa NE 5.6 km/h 5.6 km/h 76 % 0.0 mm
11:21 14.4 °C 10.2 °C 1015.8 hPa NNE 5.6 km/h 5.6 km/h 76 % 0.0 mm
11:26 14.4 °C 10.2 °C 1015.8 hPa NNE 4.7 km/h 4.7 km/h 76 % 0.0 mm
11:31 14.7 °C 10.5 °C 1015.8 hPa SSW 5.6 km/h 5.6 km/h 76 % 0.0 mm
11:36 15.0 °C 10.8 °C 1014.8 hPa NNE 5.6 km/h 5.6 km/h 76 % 0.0 mm
11:41 15.2 °C 10.8 °C 1014.8 hPa NNE 9.0 km/h 9.0 km/h 75 % 0.0 mm
11:46 15.2 °C 10.8 °C 1014.8 hPa ENE 7.4 km/h 7.4 km/h 75 % 0.0 mm
11:51 15.4 °C 11.0 °C 1014.8 hPa ENE 5.6 km/h 5.6 km/h 75 % 0.0 mm
12:01 15.6 °C 11.0 °C 1014.8 hPa East 5.6 km/h 5.8 km/h 74 % 0.0 mm
12:06 15.5 °C 10.9 °C 1014.8 hPa East 5.6 km/h 5.6 km/h 74 % 0.0 mm
12:11 15.8 °C 11.2 °C 1014.8 hPa North 3.2 km/h 3.2 km/h 74 % 0.0 mm
12:16 15.8 °C 11.2 °C 1014.8 hPa NNW 7.4 km/h 7.4 km/h 74 % 0.0 mm
12:21 16.0 °C 11.4 °C 1014.8 hPa WNW 5.6 km/h 5.6 km/h 74 % 0.0 mm
12:26 16.1 °C 11.3 °C 1014.8 hPa NW 3.7 km/h 4.2 km/h 73 % 0.0 mm
12:31 16.0 °C 11.4 °C 1014.8 hPa NNE 1.9 km/h   74 % 0.0 mm
12:36 16.3 °C 11.4 °C 1014.8 hPa NNE 6.4 km/h 6.4 km/h 73 % 0.0 mm
12:41 16.3 °C 11.4 °C 1014.8 hPa NNE 5.6 km/h 5.6 km/h 73 % 0.0 mm
12:46 16.8 °C 11.9 °C 1014.8 hPa WSW 3.7 km/h 4.2 km/h 73 % 0.0 mm
12:51 16.8 °C 11.1 °C 1013.8 hPa West 7.4 km/h 7.4 km/h 69 % 0.0 mm
12:56 17.0 °C 10.8 °C 1013.8 hPa WSW 11.1 km/h 11.1 km/h 67 % 0.0 mm
13:01 17.3 °C 10.9 °C 1013.8 hPa SW 7.4 km/h 7.4 km/h 66 % 0.0 mm
13:06 17.8 °C 11.6 °C 1013.8 hPa WSW 10.0 km/h 10.0 km/h 67 % 0.0 mm
13:11 17.6 °C 10.4 °C 1013.8 hPa WSW 7.4 km/h 7.4 km/h 63 % 0.0 mm
13:16 18.0 °C 11.1 °C 1013.8 hPa West 5.6 km/h 5.6 km/h 64 % 0.0 mm
13:21 18.1 °C 10.7 °C 1013.8 hPa WSW 10.0 km/h 10.0 km/h 62 % 0.0 mm
13:26 18.0 °C 10.4 °C 1013.8 hPa South 8.7 km/h 8.7 km/h 61 % 0.0 mm
13:31 18.2 °C 10.6 °C 1013.8 hPa WSW 11.1 km/h 11.1 km/h 61 % 0.0 mm
13:36 18.2 °C 10.6 °C 1013.8 hPa SW 6.4 km/h 6.4 km/h 61 % 0.0 mm
13:41 18.6 °C 10.7 °C 1013.8 hPa WSW 9.7 km/h 9.7 km/h 60 % 0.0 mm
13:46 18.6 °C 10.7 °C 1013.8 hPa West 7.4 km/h 7.4 km/h 60 % 0.0 mm
13:51 18.6 °C 10.7 °C 1013.8 hPa WSW 11.1 km/h 11.1 km/h 60 % 0.0 mm
13:56 18.6 °C 10.7 °C 1013.8 hPa West 10.3 km/h 10.3 km/h 60 % 0.0 mm
14:01 18.6 °C 10.7 °C 1013.8 hPa WSW 12.6 km/h 12.6 km/h 60 % 0.0 mm
14:06 18.6 °C 10.7 °C 1013.8 hPa SW 7.4 km/h 7.4 km/h 60 % 0.0 mm
14:11 18.6 °C 10.7 °C 1013.8 hPa WSW 9.3 km/h 9.3 km/h 60 % 0.0 mm
14:16 18.6 °C 10.7 °C 1013.8 hPa WSW 8.7 km/h 8.7 km/h 60 % 0.0 mm
14:26 18.7 °C 9.7 °C 1013.8 hPa West 10.0 km/h 10.0 km/h 56 % 0.0 mm
14:31 18.9 °C 9.9 °C 1013.8 hPa NW 9.5 km/h 9.5 km/h 56 % 0.0 mm
14:36 18.9 °C 9.7 °C 1013.8 hPa WNW 11.1 km/h 11.1 km/h 55 % 0.0 mm
14:41 19.0 °C 9.8 °C 1013.8 hPa SSW 5.3 km/h 5.3 km/h 55 % 0.0 mm
14:46 19.0 °C 9.8 °C 1013.8 hPa West 9.3 km/h 9.3 km/h 55 % 0.0 mm
14:51 19.0 °C 9.8 °C 1013.8 hPa WSW 11.1 km/h 11.1 km/h 55 % 0.0 mm
14:56 18.7 °C 9.2 °C 1013.8 hPa SW 7.4 km/h 7.6 km/h 54 % 0.0 mm
15:01 19.4 °C 9.8 °C 1013.8 hPa WSW 12.2 km/h 12.2 km/h 54 % 0.0 mm
15:06 19.4 °C 9.6 °C 1012.8 hPa WSW 13.0 km/h 13.0 km/h 53 % 0.0 mm
15:11 19.5 °C 9.4 °C 1012.8 hPa NNW 14.8 km/h 14.8 km/h 52 % 0.0 mm
15:16 19.5 °C 9.4 °C 1012.8 hPa WSW 7.9 km/h 7.9 km/h 52 % 0.0 mm
15:21 19.6 °C 9.2 °C 1013.8 hPa WSW 11.1 km/h 11.1 km/h 51 % 0.0 mm
15:26 19.6 °C 9.2 °C 1013.8 hPa West 9.3 km/h 9.3 km/h 51 % 0.0 mm
15:31 19.7 °C 9.3 °C 1013.8 hPa West 16.7 km/h 16.7 km/h 51 % 0.0 mm
15:36 19.5 °C 8.8 °C 1012.8 hPa NNW 18.5 km/h 18.5 km/h 50 % 0.0 mm
15:41 19.5 °C 8.8 °C 1012.8 hPa WSW 16.7 km/h 16.7 km/h 50 % 0.0 mm
15:46 19.8 °C 9.4 °C 1012.8 hPa SSW 14.8 km/h 14.8 km/h 51 % 0.0 mm
15:51 19.9 °C 9.4 °C 1013.8 hPa WSW 7.4 km/h 7.4 km/h 51 % 0.0 mm
15:56 20.0 °C 9.6 °C 1013.8 hPa WSW 13.0 km/h 13.0 km/h 51 % 0.0 mm
16:01 20.2 °C 9.7 °C 1013.8 hPa South 7.6 km/h 7.6 km/h 51 % 0.0 mm
16:06 20.3 °C 9.8 °C 1013.8 hPa SW 5.6 km/h 5.6 km/h 51 % 0.0 mm
16:11 20.2 °C 9.4 °C 1013.8 hPa West 10.8 km/h 10.8 km/h 50 % 0.0 mm
16:16 20.3 °C 9.6 °C 1013.8 hPa NW 5.6 km/h 5.6 km/h 50 % 0.0 mm
16:21 20.4 °C 9.6 °C 1013.8 hPa North 4.7 km/h 4.7 km/h 50 % 0.0 mm
16:26 20.6 °C 10.1 °C 1013.8 hPa West 7.9 km/h 7.9 km/h 51 % 0.0 mm
16:31 20.7 °C 10.2 °C 1013.8 hPa SW 6.9 km/h 6.9 km/h 51 % 0.0 mm
16:36 20.7 °C 9.9 °C 1013.8 hPa SW 9.3 km/h 9.3 km/h 50 % 0.0 mm
16:41 20.5 °C 9.4 °C 1013.8 hPa NW 13.0 km/h 13.0 km/h 49 % 0.0 mm
16:46 20.8 °C 10.0 °C 1013.8 hPa West 7.4 km/h 7.4 km/h 50 % 0.0 mm
16:51 20.8 °C 10.0 °C 1013.8 hPa SW 11.1 km/h 11.1 km/h 50 % 0.0 mm
16:56 20.8 °C 10.0 °C 1013.8 hPa WNW 7.4 km/h 7.4 km/h 50 % 0.0 mm
17:01 20.7 °C 9.9 °C 1013.8 hPa West 7.4 km/h 7.4 km/h 50 % 0.0 mm
17:06 20.5 °C 9.4 °C 1012.8 hPa WNW 9.3 km/h 9.3 km/h 49 % 0.0 mm
17:11 20.6 °C 9.5 °C 1012.8 hPa West 9.3 km/h 9.3 km/h 49 % 0.0 mm
17:16 20.7 °C 9.9 °C 1012.8 hPa SSW 6.1 km/h 6.1 km/h 50 % 0.0 mm
17:21 20.6 °C 9.5 °C 1012.8 hPa WSW 9.5 km/h 9.5 km/h 49 % 0.0 mm
17:26 20.4 °C 9.6 °C 1012.8 hPa West 7.4 km/h 7.4 km/h 50 % 0.0 mm
17:31 20.5 °C 9.7 °C 1012.8 hPa WNW 9.3 km/h 9.3 km/h 50 % 0.0 mm
17:36 20.6 °C 9.8 °C 1012.8 hPa WSW 7.4 km/h 7.4 km/h 50 % 0.0 mm
17:41 20.4 °C 9.6 °C 1012.8 hPa WSW 9.3 km/h 9.3 km/h 50 % 0.0 mm
17:46 20.4 °C 9.6 °C 1012.8 hPa WNW 9.3 km/h 9.3 km/h 50 % 0.0 mm
17:51 20.3 °C 9.6 °C 1012.8 hPa WSW 7.4 km/h 7.4 km/h 50 % 0.0 mm
17:56 20.4 °C 9.6 °C 1012.8 hPa West 5.6 km/h 5.6 km/h 50 % 0.0 mm
18:01 20.5 °C 9.7 °C 1012.8 hPa West 4.7 km/h 4.7 km/h 50 % 0.0 mm
18:06 20.4 °C 9.6 °C 1012.8 hPa South 9.3 km/h 9.3 km/h 50 % 0.0 mm
18:11 20.2 °C 9.4 °C 1012.8 hPa West 11.1 km/h 11.1 km/h 50 % 0.0 mm
18:16 20.2 °C 9.4 °C 1012.8 hPa West 7.9 km/h 7.9 km/h 50 % 0.0 mm
18:21 20.0 °C 9.3 °C 1012.8 hPa WSW 9.3 km/h 9.3 km/h 50 % 0.0 mm
18:26 19.9 °C 9.2 °C 1012.8 hPa WSW 9.7 km/h 9.7 km/h 50 % 0.0 mm
18:31 19.8 °C 9.1 °C 1012.8 hPa WSW 9.3 km/h 9.3 km/h 50 % 0.0 mm
18:36 20.0 °C 9.3 °C 1012.8 hPa SW 5.6 km/h 5.6 km/h 50 % 0.0 mm
18:42 19.9 °C 9.4 °C 1012.8 hPa WSW 8.7 km/h 8.7 km/h 51 % 0.0 mm
18:47 19.6 °C 8.9 °C 1012.8 hPa SW 6.1 km/h 8.7 km/h 50 % 0.0 mm
18:52 19.6 °C 9.2 °C 1012.8 hPa SW 5.6 km/h 5.6 km/h 51 % 0.0 mm
18:57 19.7 °C 9.3 °C 1012.8 hPa WSW 8.7 km/h 8.7 km/h 51 % 0.0 mm
19:02 19.6 °C 9.2 °C 1012.8 hPa West 5.6 km/h 5.6 km/h 51 % 0.0 mm
19:07 19.5 °C 9.1 °C 1013.8 hPa WSW 5.6 km/h 5.6 km/h 51 % 0.0 mm
19:12 19.4 °C 9.3 °C 1013.8 hPa WSW 5.6 km/h 5.6 km/h 52 % 0.0 mm
19:15 14.1 °C 7.4 °C 1014.8 hPa WSW 1.6 km/h 1.6 km/h 64 % 0.0 mm
19:17 19.0 °C 8.6 °C 1013.8 hPa WSW 9.3 km/h 9.3 km/h 51 % 0.0 mm
19:22 19.0 °C 8.6 °C 1012.8 hPa WNW 5.6 km/h 5.6 km/h 51 % 0.0 mm
19:25 14.0 °C 7.3 °C 1014.8 hPa WSW 3.2 km/h 4.8 km/h 64 % 0.0 mm
19:27 18.8 °C 8.7 °C 1012.8 hPa WSW 7.4 km/h 7.4 km/h 52 % 0.0 mm
19:32 18.6 °C 8.8 °C 1012.8 hPa WSW 7.4 km/h 7.4 km/h 53 % 0.0 mm
19:35 13.8 °C 7.1 °C 1014.8 hPa WSW 1.6 km/h 3.2 km/h 64 % 0.0 mm
19:37 18.5 °C 8.7 °C 1013.8 hPa WSW 7.4 km/h 7.4 km/h 53 % 0.0 mm
19:42 18.5 °C 8.7 °C 1013.8 hPa WSW 7.4 km/h 7.4 km/h 53 % 0.0 mm
19:45 13.8 °C 7.1 °C 1013.8 hPa SW 1.6 km/h 3.2 km/h 64 % 0.0 mm
19:47 18.2 °C 8.4 °C 1013.8 hPa SSE 3.9 km/h 3.9 km/h 53 % 0.0 mm
19:52 18.1 °C 8.7 °C 1012.8 hPa WSW 4.7 km/h 4.7 km/h 54 % 0.0 mm
19:55 13.5 °C 7.1 °C 1014.8 hPa SW 1.6 km/h 3.2 km/h 65 % 0.0 mm
19:57 18.0 °C 8.6 °C 1012.8 hPa NW 4.7 km/h 5.0 km/h 54 % 0.0 mm
20:02 17.9 °C 8.4 °C 1012.8 hPa NW 4.7 km/h 5.0 km/h 54 % 0.0 mm
20:05 13.3 °C 6.8 °C 1014.8 hPa WSW 3.2 km/h 4.8 km/h 65 % 0.0 mm
20:07 17.8 °C 8.4 °C 1012.8 hPa NW 4.7 km/h 5.0 km/h 54 % 0.0 mm
20:12 17.7 °C 8.6 °C 1012.8 hPa NW 4.7 km/h 5.0 km/h 55 % 0.0 mm
20:15 13.2 °C 7.0 °C 1013.8 hPa Calm   3.2 km/h 66 % 0.0 mm
20:17 17.6 °C 8.4 °C 1012.8 hPa West 2.6 km/h 3.5 km/h 55 % 0.0 mm
20:22 17.5 °C 8.3 °C 1012.8 hPa WNW 4.2 km/h 4.2 km/h 55 % 0.0 mm
20:25 13.1 °C 6.7 °C 1014.8 hPa WSW 1.6 km/h 3.2 km/h 65 % 0.0 mm
20:27 17.3 °C 8.2 °C 1012.8 hPa WNW 4.2 km/h 4.2 km/h 55 % 0.0 mm
20:32 17.2 °C 8.3 °C 1012.8 hPa WSW 4.2 km/h 4.2 km/h 56 % 0.0 mm
20:35 13.0 °C 6.6 °C 1014.8 hPa WSW 1.6 km/h 3.2 km/h 65 % 0.0 mm
20:37 17.1 °C 8.2 °C 1013.8 hPa SW 3.9 km/h 3.9 km/h 56 % 0.0 mm
20:42 17.1 °C 8.2 °C 1013.8 hPa WNW 1.9 km/h 2.3 km/h 56 % 0.0 mm
20:47 17.0 °C 8.4 °C 1013.8 hPa NW 3.7 km/h 4.2 km/h 57 % 0.0 mm
20:52 16.9 °C 8.6 °C 1012.8 hPa SE 3.7 km/h 3.7 km/h 58 % 0.0 mm
20:55 12.8 °C 6.6 °C 1014.8 hPa WSW 1.6 km/h 3.2 km/h 66 % 0.0 mm
20:57 16.8 °C 8.7 °C 1012.8 hPa NE 1.9 km/h   59 % 0.0 mm
21:02 16.8 °C 8.7 °C 1012.8 hPa ENE 3.7 km/h 3.7 km/h 59 % 0.0 mm
21:05 12.8 °C 6.4 °C 1014.8 hPa WSW 1.6 km/h 1.6 km/h 65 % 0.0 mm
21:07 16.4 °C 8.1 °C 1013.8 hPa NNE 4.2 km/h 4.2 km/h 58 % 0.0 mm
21:12 16.0 °C 7.7 °C 1013.8 hPa ENE 3.9 km/h 3.9 km/h 58 % 0.0 mm
21:15 12.7 °C 6.3 °C 1014.8 hPa Calm   3.2 km/h 65 % 0.0 mm
21:17 16.0 °C 7.7 °C 1013.8 hPa NNE 3.9 km/h 3.9 km/h 58 % 0.0 mm
21:22 16.0 °C 7.7 °C 1013.8 hPa NE 3.7 km/h 3.7 km/h 58 % 0.0 mm
21:25 12.7 °C 6.3 °C 1014.8 hPa Calm   1.6 km/h 65 % 0.0 mm
21:27 16.0 °C 7.7 °C 1013.8 hPa NNE 6.1 km/h 6.1 km/h 58 % 0.0 mm
21:32 15.4 °C 7.4 °C 1013.8 hPa ENE 5.6 km/h 5.6 km/h 59 % 0.0 mm
21:35 12.7 °C 6.1 °C 1014.8 hPa WNW 3.2 km/h 3.2 km/h 64 % 0.0 mm
21:37 15.2 °C 7.5 °C 1013.8 hPa ENE 3.7 km/h 3.7 km/h 60 % 0.0 mm
21:42 15.1 °C 7.4 °C 1013.8 hPa ENE 3.7 km/h 3.7 km/h 60 % 0.0 mm
21:45 12.4 °C 6.0 °C 1013.8 hPa WSW 1.6 km/h 3.2 km/h 65 % 0.0 mm
21:47 15.0 °C 7.3 °C 1013.8 hPa ENE 3.7 km/h 3.7 km/h 60 % 0.0 mm
21:52 14.9 °C 7.2 °C 1013.8 hPa ENE 3.7 km/h 3.7 km/h 60 % 0.0 mm
21:55 12.4 °C 6.0 °C 1014.8 hPa WSW 1.6 km/h 3.2 km/h 65 % 0.0 mm
21:57 14.8 °C 7.3 °C 1013.8 hPa ENE 3.7 km/h 3.7 km/h 61 % 0.0 mm
22:02 14.7 °C 7.3 °C 1013.8 hPa ENE 3.7 km/h 3.7 km/h 61 % 0.0 mm
22:05 12.2 °C 5.6 °C 1014.8 hPa WSW 3.2 km/h 3.2 km/h 64 % 0.0 mm
22:07 14.6 °C 7.4 °C 1013.8 hPa Calm     62 % 0.0 mm
22:12 14.5 °C 7.3 °C 1013.8 hPa South 3.7 km/h   62 % 0.0 mm
22:15 12.0 °C 5.4 °C 1013.8 hPa WSW 4.8 km/h 6.4 km/h 64 % 0.0 mm
22:17 14.4 °C 7.4 °C 1013.8 hPa Calm     63 % 0.0 mm
22:22 14.3 °C 7.3 °C 1013.8 hPa ENE 3.7 km/h 3.7 km/h 63 % 0.0 mm
22:25 11.9 °C 5.3 °C 1014.8 hPa WSW 1.6 km/h 4.8 km/h 64 % 0.0 mm
22:27 14.3 °C 7.3 °C 1013.8 hPa WSW 2.3 km/h   63 % 0.0 mm
22:32 14.1 °C 7.4 °C 1013.8 hPa Calm     64 % 0.0 mm
22:35 11.7 °C 5.1 °C 1014.8 hPa WSW 3.2 km/h 4.8 km/h 64 % 0.0 mm
22:37 14.1 °C 7.4 °C 1013.8 hPa Calm     64 % 0.0 mm
22:42 14.0 °C 7.3 °C 1013.8 hPa Calm     64 % 0.0 mm
22:45 11.6 °C 5.0 °C 1013.8 hPa WSW 1.6 km/h 4.8 km/h 64 % 0.0 mm
22:47 13.9 °C 7.2 °C 1013.8 hPa Calm     64 % 0.0 mm
22:52 13.8 °C 7.1 °C 1013.8 hPa Calm     64 % 0.0 mm
22:55 11.5 °C 4.9 °C 1013.8 hPa WSW 1.6 km/h 6.4 km/h 64 % 0.0 mm
22:57 13.8 °C 7.1 °C 1013.8 hPa WSW 2.6 km/h 2.6 km/h 64 % 0.0 mm
23:02 13.8 °C 7.1 °C 1013.8 hPa WSW 3.9 km/h 3.9 km/h 64 % 0.0 mm
23:05 11.5 °C 4.9 °C 1013.8 hPa WSW 3.2 km/h 8.0 km/h 64 % 0.0 mm
23:07 13.8 °C 7.1 °C 1013.8 hPa WSW 1.9 km/h 2.3 km/h 64 % 0.0 mm
23:12 13.9 °C 7.4 °C 1013.8 hPa WNW 3.7 km/h 3.7 km/h 65 % 0.0 mm
23:15 11.4 °C 4.6 °C 1013.8 hPa WSW 3.2 km/h 6.4 km/h 63 % 0.0 mm
23:17 14.0 °C 7.3 °C 1013.8 hPa NW 1.9 km/h 1.9 km/h 64 % 0.0 mm
23:22 14.3 °C 7.6 °C 1014.8 hPa West 3.7 km/h 3.7 km/h 64 % 0.0 mm
23:25 11.3 °C 4.5 °C 1013.8 hPa WSW 3.2 km/h 6.4 km/h 63 % 0.0 mm
23:27 14.4 °C 7.7 °C 1014.8 hPa WNW 1.9 km/h   64 % 0.0 mm
23:32 14.3 °C 7.6 °C 1014.8 hPa SW 3.7 km/h 3.7 km/h 64 % 0.0 mm
23:35 11.0 °C 4.4 °C 1013.8 hPa WSW 1.6 km/h 6.4 km/h 64 % 0.0 mm
23:37 14.0 °C 7.3 °C 1013.8 hPa SW 1.9 km/h 1.9 km/h 64 % 0.0 mm
23:42 13.9 °C 7.2 °C 1013.8 hPa SW 3.7 km/h 3.7 km/h 64 % 0.0 mm
23:45 10.9 °C 4.3 °C 1014.8 hPa WSW 4.8 km/h 4.8 km/h 64 % 0.0 mm
23:47 13.9 °C 7.4 °C 1013.8 hPa SW 3.7 km/h 3.7 km/h 65 % 0.0 mm
23:52 13.9 °C 7.4 °C 1014.8 hPa Calm     65 % 0.0 mm
23:55 10.6 °C 4.1 °C 1013.8 hPa WSW 1.6 km/h 4.8 km/h 64 % 0.0 mm
23:57 13.9 °C 7.4 °C 1014.8 hPa Calm     65 % 0.0 mm
Meteo Sesrovires
Elogis d' Weather Underground - 3.75 mb

Guio original per  Jim McMurry - jmcmurry@mwt.net Adaptat per a la plantilla per  Wim van der Kuil - Leuven-Template.eu

Trobareu la nostra informacio del temps tambe a:

Weather Underground

AWEKAS